WEATHER DATA

TODAY
Time Temp. Dewp. Hum. Wind dir Wind speed Wind gust Bar. 1h Prec. 24h Prec.
00:09 18.1 11.7 66 135 0.3 0.8 1008.2 0.0000 0.0000
00:19 17.9 11.5 66 90 0.3 0.8 1008.1 0.0000 0.0000
00:40 17.6 11.4 67 135 0.3 0.8 1008 0.0000 0.0000
00:49 17.5 11.5 68 142 0.3 0.8 1007.9 0.0000 0.0000
00:59 17.3 11.3 68 180 0.3 0.8 1007.8 0.0000 0.0000
01:10 17.2 11.2 68 146 0.3 1.1 1007.7 0.0000 0.0000
01:20 17.1 11.4 69 135 0.3 0.8 1007.5 0.0000 0.0000
01:30 17 11.3 69 0 0.8 1007.3 0.0000 0.0000
01:40 16.9 11.2 69 0 0.8 1007.2 0.0000 0.0000
01:50 16.8 11.1 69 0 0.8 1007.1 0.0000 0.0000
02:00 16.7 11 69 175 0.3 0.8 1007.1 0.0000 0.0000
02:10 16.5 11 70 90 0.3 1.1 1007 0.0000 0.0000
02:21 16.4 10.9 70 53 0.3 0.8 1006.9 0.0000 0.0000
02:31 16.3 10.8 70 0 0.8 1006.8 0.0000 0.0000
02:40 16.2 10.7 70 206 0.3 0.8 1006.7 0.0000 0.0000
02:50 16.1 10.8 71 153 0.3 1.1 1006.6 0.0000 0.0000
03:01 16 10.8 71 200 0.3 1.1 1006.6 0.0000 0.0000
03:11 15.9 10.7 71 90 0.3 1.1 1006.4 0.0000 0.0000
03:21 15.8 10.8 72 180 0.3 0.8 1006.3 0.0000 0.0000
03:31 15.7 10.7 72 0 0.3 0.8 1006.3 0.0000 0.0000
03:41 15.6 10.6 72 0 0.3 1.1 1006.2 0.0000 0.0000
03:51 15.5 10.7 73 356 0.3 0.8 1006.2 0.0000 0.0000
04:01 15.5 10.7 73 0 0.8 1006 0.0000 0.0000
04:12 15.4 10.6 73 330 0.3 0.8 1005.9 0.0000 0.0000
04:22 15.3 10.5 73 231 0.3 0.8 1005.8 0.0000 0.0000
04:32 15.3 10.7 74 270 0.3 0.8 1005.8 0.0000 0.0000
04:41 15.2 10.6 74 270 0.3 0.8 1005.7 0.0000 0.0000
04:52 15.1 10.5 74 270 0.3 0.8 1005.7 0.0000 0.0000
05:02 15.1 10.7 75 90 0.3 1.1 1005.6 0.0000 0.0000
05:12 15.1 10.7 75 129 0.3 0.8 1005.5 0.0000 0.0000
05:23 15.2 10.8 75 131 0.3 1.7 1005.5 0.0000 0.0000
05:32 15.2 11 76 245 1.1 5 1005.5 0.0000 0.0000
05:36 15.2 11 76 228 4.4 8.3 1005.5 0.0000 0.0000
05:49 15.2 11 76 239 3.3 11.9 1005.4 0.0000 0.0000
05:59 15.3 11.1 76 232 3.3 4.4 1005.3 0.0000 0.0000
06:09 15.3 11.3 77 234 4.2 6.7 1005.3 0.0000 0.0000
06:19 15.4 11.4 77 230 4.4 6.9 1005.2 0.0000 0.0000
06:29 15.5 11.5 77 229 3.6 9.4 1005.2 0.0000 0.0000
06:41 15.6 11.6 77 234 5.3 11.4 1005.2 0.0000 0.0000
06:51 15.7 11.7 77 225 5.3 8.6 1005.2 0.0000 0.0000
07:02 15.8 12 78 227 5.8 10.3 1005.2 0.0000 0.0000
07:11 15.8 12 78 228 5 12.8 1005.1 0.0000 0.0000
07:21 15.9 12.1 78 228 5 8.6 1005 0.0000 0.0000
07:31 16.1 12.3 78 236 6.9 9.4 1005 0.0000 0.0000
07:36 16.1 12.3 78 232 7.8 15.3 1005 0.0000 0.0000
07:52 16.3 12.5 78 237 9.4 21.4 1005 0.0000 0.0000
08:02 16.4 12.4 77 231 9.4 17.2 1005 0.0000 0.0000
08:12 16.6 12.6 77 234 10.3 13.9 1004.9 0.0000 0.0000
08:22 16.7 12.7 77 234 9.7 16.9 1004.8 0.0000 0.0000
08:32 16.9 12.8 77 232 7.5 11.9 1004.7 0.0000 0.0000
08:42 17 12.9 77 223 6.1 11.1 1004.6 0.0000 0.0000
08:53 17.2 12.9 76 240 6.9 9.4 1004.5 0.0000 0.0000
09:03 17.5 13.2 76 232 5 9.7 1004.6 0.0000 0.0000
09:12 17.6 13.3 76 233 6.1 9.7 1004.4 0.0000 0.0000
09:23 17.8 13.3 75 233 6.7 10.6 1004.3 0.0000 0.0000
09:33 18 13.5 75 230 5.3 9.7 1004.3 0.0000 0.0000
09:43 18.3 13.8 75 227 4.2 8.6 1004.2 0.0000 0.0000
09:53 18.6 13.9 74 234 4.4 8.3 1004.1 0.0000 0.0000
10:03 18.8 14.1 74 244 4.4 8.6 1004 0.0000 0.0000
10:13 19.1 14.2 73 231 4.4 8.6 1003.8 0.0000 0.0000
10:23 19.4 14.4 73 225 4.4 7.8 1003.8 0.0000 0.0000
10:34 19.6 14.4 72 231 3.6 6.9 1003.6 0.0000 0.0000
10:44 19.9 14.5 71 232 3.6 6.9 1003.5 0.0000 0.0000
10:54 20.2 14.8 71 235 1.1 5.3 1003.5 0.0000 0.0000
11:14 20.7 15 70 197 1.1 5.8 1003.3 0.0000 0.0000
11:24 20.9 15.2 70 223 1.9 4.4 1003.2 0.0000 0.0000
11:33 21.1 15.4 70 256 1.9 5.8 1003.1 0.0000 0.0000
11:44 21.3 15.4 69 90 1.1 2.5 1003 0.0000 0.0000
11:56 21.5 15.4 68 135 1.1 9.4 1002.8 0.0000 0.0000
12:06 21.7 15.5 68 230 2.5 5.3 1002.7 0.0000 0.0000
12:16 22 15.6 67 201 1.7 4.4 1002.6 0.0000 0.0000
12:26 22.1 15.5 66 84 1.7 5 1002.5 0.0000 0.0000
12:36 22.3 15.4 65 117 1.1 3.3 1002.3 0.0000 0.0000
12:46 22.5 15.6 65 164 0.8 2.5 1002.2 0.0000 0.0000
12:55 22.5 15.4 64 223 1.9 7.5 1002.1 0.0000 0.0000
13:05 22.8 15.6 64 230 7.8 12.2 1001.9 0.0000 0.0000
13:15 22.9 15.5 63 233 6.9 13.1 1001.9 0.0000 0.0000
13:29 23.2 15.5 62 232 8.3 16.9 1001.7 0.0000 0.0000
13:39 23.4 15.5 61 235 5 8.6 1001.5 0.0000 0.0000
13:46 23.4 15.5 61 218 3.6 7.8 1001.4 0.0000 0.0000
13:56 23.4 15.5 61 106 1.9 3.6 1001.2 0.0000 0.0000
14:06 23.5 15.3 60 98 2.5 6.7 1001.1 0.0000 0.0000
14:16 23.4 14.9 59 106 1.7 4.2 1000.9 0.0000 0.0000
14:26 23.5 15 59 96 2.8 6.9 1000.7 0.0000 0.0000
14:36 23.7 15.2 59 102 1.9 5.3 1000.5 0.0000 0.0000
14:46 23.8 15.3 59 200 1.9 5.8 1000.4 0.0000 0.0000
15:00 24 15.2 58 288 2.8 9.4 1000.2 0.0000 0.0000
15:10 24.2 15.4 58 220 4.2 8.3 1000.1 0.0000 0.0000
15:21 24.4 15.9 59 230 6.1 8.6 1000 0.0000 0.0000
15:30 24.5 15.7 58 228 3.6 6.7 999.9 0.0000 0.0000
15:40 24.3 15.2 57 105 1.7 5 999.8 0.0000 0.0000
15:51 24.1 14.8 56 97 1.7 5 999.7 0.0000 0.0000
16:01 23.9 14.9 57 90 1.9 5.3 999.6 0.0000 0.0000
16:11 23.8 14.8 57 90 1.7 4.2 999.5 0.0000 0.0000
16:20 23.8 15 58 139 1.1 3.3 999.4 0.0000 0.0000
16:31 23.7 15.5 60 158 1.1 2.5 999.4 0.0000 0.0000
16:41 23.7 15.7 61 166 1.7 3.6 999.4 0.0000 0.0000
16:53 23.4 15.2 60 229 3.6 11.1 1000 0.0000 0.0000
16:58 23.1 14.9 60 230 4.2 13.9 1000.4 0.0000 0.0000
17:08 22.2 15.1 64 223 4.4 15.6 1001.2 0.9090 0.9000
17:16 19.8 16.8 83 247 5.8 16.4 1001.1 7.5780 7.6000
17:26 18.2 16.9 92 270 3.3 5.3 1001 12.1250 12.1000
17:37 17.3 16.8 97 239 4.4 8.9 1000.7 13.2360 13.2000
17:47 16.9 16.7 99 238 5 10.3 1000.5 13.6400 13.6000

DAY STATISTIC

2020-06-03
TEMPERATURE
AVERAGE
18.9
HIGH
24.5
15:30
LOW
15.1
04:52
PRESSURE
AVERAGE
1003.9
HIGH
1008.2
00:09
LOW
999.4
16:20
DEWPOINT
AVERAGE
13.2
HIGH
16.9
17:26
LOW
10.5
04:22
HUMIDITY
AVERAGE
70
HIGH
99
17:47
LOW
56
15:51
WIND SPEED
AVERAGE
2.9
HIGH
10.3
08:12
WIND GUST
AVERAGE
6.2
HIGH
21.4
07:52
WIND DIRECTION
PREVAILING
SW
50%
N
2.9
NE
1.0
E
14.4
SE
10.6
S
9.6
SW
50.0
W
5.8
NW
1.0
PRECIPITATION
RAIN HOUR
13.6
RAIN DAY
13.6
TEMPERATURE (°C)
LOW
15.1
HIGH
24.5
AVERAGE
18.9
PRESSURE (hpa)
LOW
999.4
HIGH
1008.2
AVERAGE
1003.9
DEVICE